sensor_id;sensor_type;location;lat;lon;timestamp;P1;durP1;ratioP1;P2;durP2;ratioP2
13252;SDS011;6693;54.370;10.132;2023-05-13T00:00:38;10.75;;;6.72;;
13252;SDS011;6693;54.370;10.132;2023-05-13T00:01:41;11.02;;;7.00;;
13252;SDS011;6693;54.370;10.132;2023-05-13T00:02:42;10.40;;;6.97;;
13252;SDS011;6693;54.370;10.132;2023-05-13T00:03:45;13.25;;;7.10;;
13252;SDS011;6693;54.370;10.132;2023-05-13T00:04:46;13.60;;;7.03;;
13252;SDS011;6693;54.370;10.132;2023-05-13T00:05:49;11.40;;;6.35;;
13252;SDS011;6693;54.370;10.132;2023-05-13T00:06:50;14.68;;;6.80;;
13252;SDS011;6693;54.370;10.132;2023-05-13T00:07:56;11.02;;;6.45;;
13252;SDS011;6693;54.370;10.132;2023-05-13T00:09:00;11.65;;;6.82;;
13252;SDS011;6693;54.370;10.132;2023-05-13T00:10:04;12.68;;;6.28;;
13252;SDS011;6693;54.370;10.132;2023-05-13T00:11:06;11.48;;;6.40;;
13252;SDS011;6693;54.370;10.132;2023-05-13T00:12:09;10.35;;;6.38;;
13252;SDS011;6693;54.370;10.132;2023-05-13T00:13:10;11.63;;;6.20;;
13252;SDS011;6693;54.370;10.132;2023-05-13T00:14:13;13.10;;;6.47;;
13252;SDS011;6693;54.370;10.132;2023-05-13T00:15:13;14.07;;;6.32;;
13252;SDS011;6693;54.370;10.132;2023-05-13T00:16:17;12.65;;;6.30;;
13252;SDS011;6693;54.370;10.132;2023-05-13T00:17:17;12.23;;;7.00;;
13252;SDS011;6693;54.370;10.132;2023-05-13T00:18:20;10.38;;;6.15;;
13252;SDS011;6693;54.370;10.132;2023-05-13T00:19:21;11.55;;;6.63;;
13252;SDS011;6693;54.370;10.132;2023-05-13T00:20:24;12.60;;;6.47;;
13252;SDS011;6693;54.370;10.132;2023-05-13T00:21:25;11.43;;;6.28;;
13252;SDS011;6693;54.370;10.132;2023-05-13T00:22:28;11.93;;;6.57;;
13252;SDS011;6693;54.370;10.132;2023-05-13T00:23:31;10.55;;;6.32;;
13252;SDS011;6693;54.370;10.132;2023-05-13T00:24:35;11.80;;;6.40;;
13252;SDS011;6693;54.370;10.132;2023-05-13T00:25:35;11.60;;;6.15;;
13252;SDS011;6693;54.370;10.132;2023-05-13T00:26:40;10.93;;;5.93;;
13252;SDS011;6693;54.370;10.132;2023-05-13T00:27:40;10.52;;;6.45;;
13252;SDS011;6693;54.370;10.132;2023-05-13T00:28:44;11.23;;;6.03;;
13252;SDS011;6693;54.370;10.132;2023-05-13T00:29:44;10.80;;;6.35;;
13252;SDS011;6693;54.370;10.132;2023-05-13T00:30:47;12.88;;;6.85;;
13252;SDS011;6693;54.370;10.132;2023-05-13T00:31:48;11.02;;;6.80;;
13252;SDS011;6693;54.370;10.132;2023-05-13T00:32:51;9.57;;;5.97;;
13252;SDS011;6693;54.370;10.132;2023-05-13T00:33:52;11.75;;;5.85;;
13252;SDS011;6693;54.370;10.132;2023-05-13T00:34:55;12.80;;;6.88;;
13252;SDS011;6693;54.370;10.132;2023-05-13T00:35:56;10.73;;;6.25;;
13252;SDS011;6693;54.370;10.132;2023-05-13T00:36:59;11.82;;;6.45;;
13252;SDS011;6693;54.370;10.132;2023-05-13T00:38:00;10.65;;;6.40;;
13252;SDS011;6693;54.370;10.132;2023-05-13T00:39:06;10.23;;;6.45;;
13252;SDS011;6693;54.370;10.132;2023-05-13T00:40:08;10.80;;;6.50;;
13252;SDS011;6693;54.370;10.132;2023-05-13T00:41:18;11.80;;;6.53;;
13252;SDS011;6693;54.370;10.132;2023-05-13T00:42:20;10.88;;;6.22;;
13252;SDS011;6693;54.370;10.132;2023-05-13T00:43:23;11.48;;;6.50;;
13252;SDS011;6693;54.370;10.132;2023-05-13T00:44:25;11.85;;;6.38;;
13252;SDS011;6693;54.370;10.132;2023-05-13T00:45:29;11.80;;;6.60;;
13252;SDS011;6693;54.370;10.132;2023-05-13T00:46:29;10.27;;;6.43;;
13252;SDS011;6693;54.370;10.132;2023-05-13T00:47:33;11.00;;;6.35;;
13252;SDS011;6693;54.370;10.132;2023-05-13T00:48:34;12.82;;;6.50;;
13252;SDS011;6693;54.370;10.132;2023-05-13T00:49:37;12.13;;;6.65;;
13252;SDS011;6693;54.370;10.132;2023-05-13T00:50:38;12.15;;;6.18;;
13252;SDS011;6693;54.370;10.132;2023-05-13T00:51:43;11.07;;;6.82;;
13252;SDS011;6693;54.370;10.132;2023-05-13T00:52:44;11.98;;;7.03;;
13252;SDS011;6693;54.370;10.132;2023-05-13T00:53:48;10.80;;;6.32;;
13252;SDS011;6693;54.370;10.132;2023-05-13T00:54:51;10.63;;;6.35;;
13252;SDS011;6693;54.370;10.132;2023-05-13T00:55:55;10.13;;;6.00;;
13252;SDS011;6693;54.370;10.132;2023-05-13T00:56:55;9.80;;;6.22;;
13252;SDS011;6693;54.370;10.132;2023-05-13T00:57:59;13.80;;;6.85;;
13252;SDS011;6693;54.370;10.132;2023-05-13T00:59:00;15.90;;;7.30;;
13252;SDS011;6693;54.370;10.132;2023-05-13T01:00:04;12.52;;;6.82;;
13252;SDS011;6693;54.370;10.132;2023-05-13T01:01:10;12.20;;;7.13;;
13252;SDS011;6693;54.370;10.132;2023-05-13T01:02:15;11.05;;;6.55;;
13252;SDS011;6693;54.370;10.132;2023-05-13T01:03:20;10.02;;;6.38;;
13252;SDS011;6693;54.370;10.132;2023-05-13T01:04:33;10.38;;;6.60;;
13252;SDS011;6693;54.370;10.132;2023-05-13T01:05:40;11.38;;;6.70;;
13252;SDS011;6693;54.370;10.132;2023-05-13T01:06:51;11.38;;;6.63;;
13252;SDS011;6693;54.370;10.132;2023-05-13T01:07:59;11.80;;;6.55;;
13252;SDS011;6693;54.370;10.132;2023-05-13T01:09:06;10.43;;;6.40;;
13252;SDS011;6693;54.370;10.132;2023-05-13T01:10:14;12.27;;;6.13;;
13252;SDS011;6693;54.370;10.132;2023-05-13T01:11:23;11.27;;;6.45;;
13252;SDS011;6693;54.370;10.132;2023-05-13T01:12:28;13.30;;;6.70;;
13252;SDS011;6693;54.370;10.132;2023-05-13T01:13:35;11.00;;;6.35;;
13252;SDS011;6693;54.370;10.132;2023-05-13T01:14:44;12.20;;;6.28;;
13252;SDS011;6693;54.370;10.132;2023-05-13T01:15:54;12.93;;;6.15;;
13252;SDS011;6693;54.370;10.132;2023-05-13T01:16:57;11.80;;;6.93;;
13252;SDS011;6693;54.370;10.132;2023-05-13T01:18:04;11.30;;;6.88;;
13252;SDS011;6693;54.370;10.132;2023-05-13T01:19:07;11.50;;;6.28;;
13252;SDS011;6693;54.370;10.132;2023-05-13T01:20:25;11.55;;;6.10;;
13252;SDS011;6693;54.370;10.132;2023-05-13T01:21:29;9.75;;;6.32;;
13252;SDS011;6693;54.370;10.132;2023-05-13T01:22:37;14.18;;;6.90;;
13252;SDS011;6693;54.370;10.132;2023-05-13T01:23:37;11.05;;;6.28;;
13252;SDS011;6693;54.370;10.132;2023-05-13T01:24:41;10.98;;;6.22;;
13252;SDS011;6693;54.370;10.132;2023-05-13T01:25:41;9.95;;;6.10;;
13252;SDS011;6693;54.370;10.132;2023-05-13T01:26:44;11.20;;;6.60;;
13252;SDS011;6693;54.370;10.132;2023-05-13T01:27:45;11.57;;;6.28;;
13252;SDS011;6693;54.370;10.132;2023-05-13T01:28:48;11.15;;;6.55;;
13252;SDS011;6693;54.370;10.132;2023-05-13T01:29:49;10.27;;;6.28;;
13252;SDS011;6693;54.370;10.132;2023-05-13T01:30:52;9.95;;;6.32;;
13252;SDS011;6693;54.370;10.132;2023-05-13T01:31:56;9.93;;;6.35;;
13252;SDS011;6693;54.370;10.132;2023-05-13T01:33:01;10.13;;;6.60;;
13252;SDS011;6693;54.370;10.132;2023-05-13T01:34:02;11.05;;;6.88;;
13252;SDS011;6693;54.370;10.132;2023-05-13T01:35:06;12.63;;;6.93;;
13252;SDS011;6693;54.370;10.132;2023-05-13T01:36:08;10.30;;;6.57;;
13252;SDS011;6693;54.370;10.132;2023-05-13T01:37:15;12.20;;;6.80;;
13252;SDS011;6693;54.370;10.132;2023-05-13T01:38:16;13.43;;;7.40;;
13252;SDS011;6693;54.370;10.132;2023-05-13T01:39:20;13.13;;;7.13;;
13252;SDS011;6693;54.370;10.132;2023-05-13T01:40:21;10.75;;;6.90;;
13252;SDS011;6693;54.370;10.132;2023-05-13T01:41:25;12.90;;;6.50;;
13252;SDS011;6693;54.370;10.132;2023-05-13T01:42:28;12.52;;;7.20;;
13252;SDS011;6693;54.370;10.132;2023-05-13T01:43:31;10.18;;;6.30;;
13252;SDS011;6693;54.370;10.132;2023-05-13T01:44:32;12.45;;;6.82;;
13252;SDS011;6693;54.370;10.132;2023-05-13T01:45:35;11.38;;;6.97;;
13252;SDS011;6693;54.370;10.132;2023-05-13T01:46:36;12.70;;;7.28;;
13252;SDS011;6693;54.370;10.132;2023-05-13T01:47:40;11.45;;;7.13;;
13252;SDS011;6693;54.370;10.132;2023-05-13T01:48:40;14.38;;;7.18;;
13252;SDS011;6693;54.370;10.132;2023-05-13T01:49:43;10.95;;;7.05;;
13252;SDS011;6693;54.370;10.132;2023-05-13T01:50:44;12.95;;;7.15;;
13252;SDS011;6693;54.370;10.132;2023-05-13T01:51:47;11.82;;;7.20;;
13252;SDS011;6693;54.370;10.132;2023-05-13T01:52:51;14.00;;;7.03;;
13252;SDS011;6693;54.370;10.132;2023-05-13T01:53:54;13.25;;;7.00;;
13252;SDS011;6693;54.370;10.132;2023-05-13T01:54:54;13.18;;;7.55;;
13252;SDS011;6693;54.370;10.132;2023-05-13T01:59:30;12.98;;;7.13;;
13252;SDS011;6693;54.370;10.132;2023-05-13T02:00:33;11.45;;;7.28;;
13252;SDS011;6693;54.370;10.132;2023-05-13T02:01:34;13.38;;;7.53;;
13252;SDS011;6693;54.370;10.132;2023-05-13T02:02:39;12.77;;;7.00;;
13252;SDS011;6693;54.370;10.132;2023-05-13T02:03:40;12.48;;;7.18;;
13252;SDS011;6693;54.370;10.132;2023-05-13T02:04:44;16.08;;;7.93;;
13252;SDS011;6693;54.370;10.132;2023-05-13T02:05:45;12.73;;;7.32;;
13252;SDS011;6693;54.370;10.132;2023-05-13T02:06:48;11.55;;;7.28;;
13252;SDS011;6693;54.370;10.132;2023-05-13T02:07:51;10.90;;;7.28;;
13252;SDS011;6693;54.370;10.132;2023-05-13T02:08:54;11.68;;;7.43;;
13252;SDS011;6693;54.370;10.132;2023-05-13T02:09:55;13.15;;;7.80;;
13252;SDS011;6693;54.370;10.132;2023-05-13T02:10:59;12.93;;;8.18;;
13252;SDS011;6693;54.370;10.132;2023-05-13T02:12:00;13.27;;;7.63;;
13252;SDS011;6693;54.370;10.132;2023-05-13T02:13:03;13.20;;;7.90;;
13252;SDS011;6693;54.370;10.132;2023-05-13T02:14:04;13.52;;;7.70;;
13252;SDS011;6693;54.370;10.132;2023-05-13T02:15:07;13.18;;;8.07;;
13252;SDS011;6693;54.370;10.132;2023-05-13T02:16:09;15.45;;;8.25;;
13252;SDS011;6693;54.370;10.132;2023-05-13T02:17:12;15.07;;;8.25;;
13252;SDS011;6693;54.370;10.132;2023-05-13T02:18:13;15.23;;;8.48;;
13252;SDS011;6693;54.370;10.132;2023-05-13T02:19:16;12.48;;;7.80;;
13252;SDS011;6693;54.370;10.132;2023-05-13T02:20:17;13.00;;;7.93;;
13252;SDS011;6693;54.370;10.132;2023-05-13T02:21:20;13.48;;;8.35;;
13252;SDS011;6693;54.370;10.132;2023-05-13T02:22:21;14.48;;;8.13;;
13252;SDS011;6693;54.370;10.132;2023-05-13T02:23:26;13.07;;;7.97;;
13252;SDS011;6693;54.370;10.132;2023-05-13T02:24:29;16.50;;;8.35;;
13252;SDS011;6693;54.370;10.132;2023-05-13T02:25:33;13.32;;;8.18;;
13252;SDS011;6693;54.370;10.132;2023-05-13T02:26:34;14.77;;;8.30;;
13252;SDS011;6693;54.370;10.132;2023-05-13T02:27:37;13.50;;;8.30;;
13252;SDS011;6693;54.370;10.132;2023-05-13T02:28:38;13.02;;;8.35;;
13252;SDS011;6693;54.370;10.132;2023-05-13T02:29:42;15.90;;;8.65;;
13252;SDS011;6693;54.370;10.132;2023-05-13T02:30:44;14.32;;;8.40;;
13252;SDS011;6693;54.370;10.132;2023-05-13T02:31:47;12.75;;;8.32;;
13252;SDS011;6693;54.370;10.132;2023-05-13T02:32:48;14.80;;;8.30;;
13252;SDS011;6693;54.370;10.132;2023-05-13T02:33:51;13.55;;;8.05;;
13252;SDS011;6693;54.370;10.132;2023-05-13T02:34:51;14.60;;;8.50;;
13252;SDS011;6693;54.370;10.132;2023-05-13T02:35:55;12.57;;;7.90;;
13252;SDS011;6693;54.370;10.132;2023-05-13T02:36:55;14.38;;;8.50;;
13252;SDS011;6693;54.370;10.132;2023-05-13T02:37:58;12.40;;;8.02;;
13252;SDS011;6693;54.370;10.132;2023-05-13T02:39:02;14.60;;;8.32;;
13252;SDS011;6693;54.370;10.132;2023-05-13T02:40:05;13.88;;;8.15;;
13252;SDS011;6693;54.370;10.132;2023-05-13T02:41:07;13.98;;;8.35;;
13252;SDS011;6693;54.370;10.132;2023-05-13T02:42:10;13.80;;;8.32;;
13252;SDS011;6693;54.370;10.132;2023-05-13T02:43:11;12.23;;;8.18;;
13252;SDS011;6693;54.370;10.132;2023-05-13T02:44:14;14.65;;;8.00;;
13252;SDS011;6693;54.370;10.132;2023-05-13T02:45:15;14.52;;;8.40;;
13252;SDS011;6693;54.370;10.132;2023-05-13T02:46:18;12.93;;;8.40;;
13252;SDS011;6693;54.370;10.132;2023-05-13T02:47:19;15.23;;;8.60;;
13252;SDS011;6693;54.370;10.132;2023-05-13T02:48:22;13.80;;;8.65;;
13252;SDS011;6693;54.370;10.132;2023-05-13T02:49:22;14.38;;;8.70;;
13252;SDS011;6693;54.370;10.132;2023-05-13T02:50:26;14.48;;;8.52;;
13252;SDS011;6693;54.370;10.132;2023-05-13T02:51:26;14.00;;;8.70;;
13252;SDS011;6693;54.370;10.132;2023-05-13T02:52:29;14.02;;;8.30;;
13252;SDS011;6693;54.370;10.132;2023-05-13T02:53:30;15.10;;;8.35;;
13252;SDS011;6693;54.370;10.132;2023-05-13T02:54:36;13.02;;;8.05;;
13252;SDS011;6693;54.370;10.132;2023-05-13T02:55:37;14.13;;;8.30;;
13252;SDS011;6693;54.370;10.132;2023-05-13T02:56:40;14.23;;;8.30;;
13252;SDS011;6693;54.370;10.132;2023-05-13T02:57:41;13.35;;;7.60;;
13252;SDS011;6693;54.370;10.132;2023-05-13T02:58:44;14.80;;;8.50;;
13252;SDS011;6693;54.370;10.132;2023-05-13T02:59:44;11.93;;;7.35;;
13252;SDS011;6693;54.370;10.132;2023-05-13T03:00:48;15.13;;;8.48;;
13252;SDS011;6693;54.370;10.132;2023-05-13T03:01:48;13.98;;;8.05;;
13252;SDS011;6693;54.370;10.132;2023-05-13T03:02:52;12.13;;;7.88;;
13252;SDS011;6693;54.370;10.132;2023-05-13T03:03:52;13.45;;;8.05;;
13252;SDS011;6693;54.370;10.132;2023-05-13T03:04:55;12.48;;;7.95;;
13252;SDS011;6693;54.370;10.132;2023-05-13T03:05:56;14.20;;;8.18;;
13252;SDS011;6693;54.370;10.132;2023-05-13T03:06:59;12.85;;;7.88;;
13252;SDS011;6693;54.370;10.132;2023-05-13T03:08:00;14.88;;;8.23;;
13252;SDS011;6693;54.370;10.132;2023-05-13T03:09:03;12.45;;;7.90;;
13252;SDS011;6693;54.370;10.132;2023-05-13T03:10:10;14.10;;;7.63;;
13252;SDS011;6693;54.370;10.132;2023-05-13T03:11:10;12.90;;;7.40;;
13252;SDS011;6693;54.370;10.132;2023-05-13T03:12:13;12.40;;;7.68;;
13252;SDS011;6693;54.370;10.132;2023-05-13T03:13:14;12.23;;;7.90;;
13252;SDS011;6693;54.370;10.132;2023-05-13T03:14:17;12.60;;;7.70;;
13252;SDS011;6693;54.370;10.132;2023-05-13T03:15:18;13.95;;;7.88;;
13252;SDS011;6693;54.370;10.132;2023-05-13T03:16:21;14.25;;;8.30;;
13252;SDS011;6693;54.370;10.132;2023-05-13T03:17:22;12.98;;;8.38;;
13252;SDS011;6693;54.370;10.132;2023-05-13T03:18:25;13.68;;;7.82;;
13252;SDS011;6693;54.370;10.132;2023-05-13T03:19:27;14.05;;;7.35;;
13252;SDS011;6693;54.370;10.132;2023-05-13T03:20:31;14.13;;;8.20;;
13252;SDS011;6693;54.370;10.132;2023-05-13T03:21:31;13.77;;;8.30;;
13252;SDS011;6693;54.370;10.132;2023-05-13T03:22:35;13.43;;;7.78;;
13252;SDS011;6693;54.370;10.132;2023-05-13T03:23:37;13.95;;;8.50;;
13252;SDS011;6693;54.370;10.132;2023-05-13T03:24:40;14.35;;;7.90;;
13252;SDS011;6693;54.370;10.132;2023-05-13T03:25:44;17.10;;;8.27;;
13252;SDS011;6693;54.370;10.132;2023-05-13T03:26:48;15.25;;;7.88;;
13252;SDS011;6693;54.370;10.132;2023-05-13T03:27:48;13.30;;;7.93;;
13252;SDS011;6693;54.370;10.132;2023-05-13T03:28:51;12.60;;;8.10;;
13252;SDS011;6693;54.370;10.132;2023-05-13T03:29:52;13.15;;;8.02;;
13252;SDS011;6693;54.370;10.132;2023-05-13T03:30:55;14.77;;;8.13;;
13252;SDS011;6693;54.370;10.132;2023-05-13T03:31:56;13.73;;;8.07;;
13252;SDS011;6693;54.370;10.132;2023-05-13T03:32:59;13.65;;;8.27;;
13252;SDS011;6693;54.370;10.132;2023-05-13T03:34:00;14.27;;;7.78;;
13252;SDS011;6693;54.370;10.132;2023-05-13T03:35:03;14.18;;;7.93;;
13252;SDS011;6693;54.370;10.132;2023-05-13T03:36:04;14.23;;;8.38;;
13252;SDS011;6693;54.370;10.132;2023-05-13T03:37:08;14.85;;;7.70;;
13252;SDS011;6693;54.370;10.132;2023-05-13T03:38:11;14.48;;;7.75;;
13252;SDS011;6693;54.370;10.132;2023-05-13T03:39:14;13.18;;;8.02;;
13252;SDS011;6693;54.370;10.132;2023-05-13T03:40:15;14.95;;;8.00;;
13252;SDS011;6693;54.370;10.132;2023-05-13T03:41:21;12.18;;;7.97;;
13252;SDS011;6693;54.370;10.132;2023-05-13T03:42:22;13.23;;;8.25;;
13252;SDS011;6693;54.370;10.132;2023-05-13T03:43:25;13.52;;;8.30;;
13252;SDS011;6693;54.370;10.132;2023-05-13T03:44:26;14.82;;;8.57;;
13252;SDS011;6693;54.370;10.132;2023-05-13T03:45:29;11.50;;;7.80;;
13252;SDS011;6693;54.370;10.132;2023-05-13T03:46:30;13.40;;;8.15;;
13252;SDS011;6693;54.370;10.132;2023-05-13T03:47:33;13.10;;;7.88;;
13252;SDS011;6693;54.370;10.132;2023-05-13T03:48:34;13.77;;;8.15;;
13252;SDS011;6693;54.370;10.132;2023-05-13T03:49:37;14.93;;;8.23;;
13252;SDS011;6693;54.370;10.132;2023-05-13T03:50:38;13.05;;;8.00;;
13252;SDS011;6693;54.370;10.132;2023-05-13T03:51:41;12.25;;;8.13;;
13252;SDS011;6693;54.370;10.132;2023-05-13T03:52:42;13.95;;;8.27;;
13252;SDS011;6693;54.370;10.132;2023-05-13T03:53:45;15.10;;;8.48;;
13252;SDS011;6693;54.370;10.132;2023-05-13T03:54:45;13.60;;;8.73;;
13252;SDS011;6693;54.370;10.132;2023-05-13T03:55:48;15.50;;;8.73;;
13252;SDS011;6693;54.370;10.132;2023-05-13T03:56:52;14.63;;;8.77;;
13252;SDS011;6693;54.370;10.132;2023-05-13T03:57:55;13.70;;;8.52;;
13252;SDS011;6693;54.370;10.132;2023-05-13T03:58:55;14.15;;;8.32;;
13252;SDS011;6693;54.370;10.132;2023-05-13T03:59:59;13.07;;;8.68;;
13252;SDS011;6693;54.370;10.132;2023-05-13T04:00:59;12.65;;;8.02;;
13252;SDS011;6693;54.370;10.132;2023-05-13T04:02:03;16.75;;;8.45;;
13252;SDS011;6693;54.370;10.132;2023-05-13T04:03:03;13.70;;;8.15;;
13252;SDS011;6693;54.370;10.132;2023-05-13T04:04:07;13.07;;;8.07;;
13252;SDS011;6693;54.370;10.132;2023-05-13T04:05:07;13.05;;;8.30;;
13252;SDS011;6693;54.370;10.132;2023-05-13T04:06:12;13.65;;;8.40;;
13252;SDS011;6693;54.370;10.132;2023-05-13T04:07:13;14.90;;;8.75;;
13252;SDS011;6693;54.370;10.132;2023-05-13T04:08:16;14.32;;;8.30;;
13252;SDS011;6693;54.370;10.132;2023-05-13T04:09:17;14.32;;;8.55;;
13252;SDS011;6693;54.370;10.132;2023-05-13T04:10:20;15.40;;;8.15;;
13252;SDS011;6693;54.370;10.132;2023-05-13T04:11:21;13.65;;;8.80;;
13252;SDS011;6693;54.370;10.132;2023-05-13T04:12:27;12.60;;;7.68;;
13252;SDS011;6693;54.370;10.132;2023-05-13T04:13:31;14.48;;;8.32;;
13252;SDS011;6693;54.370;10.132;2023-05-13T04:14:34;13.77;;;8.40;;
13252;SDS011;6693;54.370;10.132;2023-05-13T04:15:35;14.20;;;7.78;;
13252;SDS011;6693;54.370;10.132;2023-05-13T04:16:38;13.13;;;7.93;;
13252;SDS011;6693;54.370;10.132;2023-05-13T04:17:38;12.35;;;7.85;;
13252;SDS011;6693;54.370;10.132;2023-05-13T04:18:45;14.23;;;7.90;;
13252;SDS011;6693;54.370;10.132;2023-05-13T04:19:45;11.88;;;7.60;;
13252;SDS011;6693;54.370;10.132;2023-05-13T04:20:49;12.93;;;7.95;;
13252;SDS011;6693;54.370;10.132;2023-05-13T04:21:49;13.68;;;7.85;;
13252;SDS011;6693;54.370;10.132;2023-05-13T04:22:52;12.40;;;8.07;;
13252;SDS011;6693;54.370;10.132;2023-05-13T04:23:53;13.75;;;8.25;;
13252;SDS011;6693;54.370;10.132;2023-05-13T04:24:56;13.20;;;7.90;;
13252;SDS011;6693;54.370;10.132;2023-05-13T04:25:57;11.93;;;7.85;;
13252;SDS011;6693;54.370;10.132;2023-05-13T04:27:00;13.32;;;8.23;;
13252;SDS011;6693;54.370;10.132;2023-05-13T04:28:03;14.15;;;8.25;;
13252;SDS011;6693;54.370;10.132;2023-05-13T04:29:07;13.38;;;7.85;;
13252;SDS011;6693;54.370;10.132;2023-05-13T04:30:08;12.98;;;7.85;;
13252;SDS011;6693;54.370;10.132;2023-05-13T04:31:12;13.85;;;8.35;;
13252;SDS011;6693;54.370;10.132;2023-05-13T04:32:13;13.55;;;7.80;;
13252;SDS011;6693;54.370;10.132;2023-05-13T04:33:20;14.30;;;8.15;;
13252;SDS011;6693;54.370;10.132;2023-05-13T04:34:21;14.25;;;8.18;;
13252;SDS011;6693;54.370;10.132;2023-05-13T04:35:24;13.43;;;7.85;;
13252;SDS011;6693;54.370;10.132;2023-05-13T04:36:25;15.35;;;8.65;;
13252;SDS011;6693;54.370;10.132;2023-05-13T04:37:28;13.20;;;8.00;;
13252;SDS011;6693;54.370;10.132;2023-05-13T04:38:29;13.73;;;8.20;;
13252;SDS011;6693;54.370;10.132;2023-05-13T04:39:33;12.73;;;8.05;;
13252;SDS011;6693;54.370;10.132;2023-05-13T04:40:33;13.82;;;7.65;;
13252;SDS011;6693;54.370;10.132;2023-05-13T04:41:36;13.40;;;7.38;;
13252;SDS011;6693;54.370;10.132;2023-05-13T04:42:40;14.68;;;8.00;;
13252;SDS011;6693;54.370;10.132;2023-05-13T04:43:44;13.65;;;7.72;;
13252;SDS011;6693;54.370;10.132;2023-05-13T04:44:47;15.48;;;8.27;;
13252;SDS011;6693;54.370;10.132;2023-05-13T04:45:47;14.00;;;7.85;;
13252;SDS011;6693;54.370;10.132;2023-05-13T04:46:51;11.98;;;7.40;;
13252;SDS011;6693;54.370;10.132;2023-05-13T04:47:51;12.93;;;7.57;;
13252;SDS011;6693;54.370;10.132;2023-05-13T04:48:55;13.27;;;7.65;;
13252;SDS011;6693;54.370;10.132;2023-05-13T04:49:56;11.77;;;7.40;;
13252;SDS011;6693;54.370;10.132;2023-05-13T04:50:59;13.05;;;7.53;;
13252;SDS011;6693;54.370;10.132;2023-05-13T04:51:59;13.50;;;7.45;;
13252;SDS011;6693;54.370;10.132;2023-05-13T04:53:03;14.20;;;8.30;;
13252;SDS011;6693;54.370;10.132;2023-05-13T04:54:03;12.98;;;7.95;;
13252;SDS011;6693;54.370;10.132;2023-05-13T04:55:07;13.27;;;8.00;;
13252;SDS011;6693;54.370;10.132;2023-05-13T04:56:08;12.38;;;7.68;;
13252;SDS011;6693;54.370;10.132;2023-05-13T04:57:11;13.45;;;7.80;;
13252;SDS011;6693;54.370;10.132;2023-05-13T04:58:12;13.15;;;8.27;;
13252;SDS011;6693;54.370;10.132;2023-05-13T04:59:18;12.38;;;7.22;;
13252;SDS011;6693;54.370;10.132;2023-05-13T05:00:18;12.43;;;7.72;;
13252;SDS011;6693;54.370;10.132;2023-05-13T05:01:22;12.48;;;7.80;;
13252;SDS011;6693;54.370;10.132;2023-05-13T05:02:22;13.23;;;7.68;;
13252;SDS011;6693;54.370;10.132;2023-05-13T05:03:29;13.07;;;7.68;;
13252;SDS011;6693;54.370;10.132;2023-05-13T05:04:30;12.32;;;7.78;;
13252;SDS011;6693;54.370;10.132;2023-05-13T05:05:33;12.48;;;7.47;;
13252;SDS011;6693;54.370;10.132;2023-05-13T05:06:33;11.15;;;7.68;;
13252;SDS011;6693;54.370;10.132;2023-05-13T05:07:37;14.32;;;8.15;;
13252;SDS011;6693;54.370;10.132;2023-05-13T05:08:39;14.93;;;7.82;;
13252;SDS011;6693;54.370;10.132;2023-05-13T05:09:42;12.95;;;7.57;;
13252;SDS011;6693;54.370;10.132;2023-05-13T05:10:43;12.45;;;8.07;;
13252;SDS011;6693;54.370;10.132;2023-05-13T05:11:46;12.35;;;7.78;;
13252;SDS011;6693;54.370;10.132;2023-05-13T05:12:49;13.02;;;7.75;;
13252;SDS011;6693;54.370;10.132;2023-05-13T05:13:52;13.10;;;7.82;;
13252;SDS011;6693;54.370;10.132;2023-05-13T05:14:55;12.57;;;7.45;;
13252;SDS011;6693;54.370;10.132;2023-05-13T05:15:59;15.55;;;7.78;;
13252;SDS011;6693;54.370;10.132;2023-05-13T05:16:59;11.93;;;7.35;;
13252;SDS011;6693;54.370;10.132;2023-05-13T05:18:03;11.95;;;8.10;;
13252;SDS011;6693;54.370;10.132;2023-05-13T05:19:05;12.85;;;7.60;;
13252;SDS011;6693;54.370;10.132;2023-05-13T05:20:09;13.57;;;7.97;;
13252;SDS011;6693;54.370;10.132;2023-05-13T05:21:11;14.90;;;7.78;;
13252;SDS011;6693;54.370;10.132;2023-05-13T05:22:14;11.18;;;7.13;;
13252;SDS011;6693;54.370;10.132;2023-05-13T05:23:15;10.57;;;7.25;;
13252;SDS011;6693;54.370;10.132;2023-05-13T05:24:18;14.07;;;7.60;;
13252;SDS011;6693;54.370;10.132;2023-05-13T05:25:19;12.45;;;7.40;;
13252;SDS011;6693;54.370;10.132;2023-05-13T05:26:23;11.85;;;7.47;;
13252;SDS011;6693;54.370;10.132;2023-05-13T05:27:24;14.80;;;7.28;;
13252;SDS011;6693;54.370;10.132;2023-05-13T05:28:27;12.23;;;6.85;;
13252;SDS011;6693;54.370;10.132;2023-05-13T05:29:28;10.25;;;6.80;;
13252;SDS011;6693;54.370;10.132;2023-05-13T05:30:33;10.68;;;6.70;;
13252;SDS011;6693;54.370;10.132;2023-05-13T05:31:38;13.60;;;7.32;;
13252;SDS011;6693;54.370;10.132;2023-05-13T05:32:41;11.13;;;6.70;;
13252;SDS011;6693;54.370;10.132;2023-05-13T05:33:42;12.90;;;6.90;;
13252;SDS011;6693;54.370;10.132;2023-05-13T05:34:46;11.57;;;6.93;;
13252;SDS011;6693;54.370;10.132;2023-05-13T05:35:46;11.60;;;6.47;;
13252;SDS011;6693;54.370;10.132;2023-05-13T05:36:50;13.18;;;6.85;;
13252;SDS011;6693;54.370;10.132;2023-05-13T05:37:50;12.65;;;7.15;;
13252;SDS011;6693;54.370;10.132;2023-05-13T05:38:54;12.57;;;7.00;;
13252;SDS011;6693;54.370;10.132;2023-05-13T05:39:54;13.15;;;7.28;;
13252;SDS011;6693;54.370;10.132;2023-05-13T05:40:58;12.73;;;6.68;;
13252;SDS011;6693;54.370;10.132;2023-05-13T05:41:58;11.75;;;7.45;;
13252;SDS011;6693;54.370;10.132;2023-05-13T05:43:01;10.30;;;6.70;;
13252;SDS011;6693;54.370;10.132;2023-05-13T05:44:02;11.57;;;7.10;;
13252;SDS011;6693;54.370;10.132;2023-05-13T05:45:06;11.80;;;6.63;;
13252;SDS011;6693;54.370;10.132;2023-05-13T05:47:13;11.63;;;6.55;;
13252;SDS011;6693;54.370;10.132;2023-05-13T05:48:13;11.25;;;6.85;;
13252;SDS011;6693;54.370;10.132;2023-05-13T05:49:17;11.20;;;6.75;;
13252;SDS011;6693;54.370;10.132;2023-05-13T05:50:17;11.88;;;6.70;;
13252;SDS011;6693;54.370;10.132;2023-05-13T05:51:20;13.63;;;7.07;;
13252;SDS011;6693;54.370;10.132;2023-05-13T05:52:21;12.00;;;7.28;;
13252;SDS011;6693;54.370;10.132;2023-05-13T05:53:24;10.32;;;6.22;;
13252;SDS011;6693;54.370;10.132;2023-05-13T05:54:25;13.90;;;6.55;;
13252;SDS011;6693;54.370;10.132;2023-05-13T05:55:29;10.85;;;6.25;;
13252;SDS011;6693;54.370;10.132;2023-05-13T05:56:30;10.40;;;6.40;;
13252;SDS011;6693;54.370;10.132;2023-05-13T05:57:34;11.32;;;6.70;;
13252;SDS011;6693;54.370;10.132;2023-05-13T05:58:34;10.57;;;6.35;;
13252;SDS011;6693;54.370;10.132;2023-05-13T05:59:38;12.73;;;6.68;;
13252;SDS011;6693;54.370;10.132;2023-05-13T06:00:38;11.30;;;6.18;;
13252;SDS011;6693;54.370;10.132;2023-05-13T06:01:44;12.65;;;7.10;;
13252;SDS011;6693;54.370;10.132;2023-05-13T06:02:47;9.77;;;6.50;;
13252;SDS011;6693;54.370;10.132;2023-05-13T06:03:48;10.15;;;6.60;;
13252;SDS011;6693;54.370;10.132;2023-05-13T06:04:52;12.68;;;6.75;;
13252;SDS011;6693;54.370;10.132;2023-05-13T06:05:52;12.18;;;6.43;;
13252;SDS011;6693;54.370;10.132;2023-05-13T06:06:55;11.45;;;6.53;;
13252;SDS011;6693;54.370;10.132;2023-05-13T06:07:58;11.82;;;6.53;;
13252;SDS011;6693;54.370;10.132;2023-05-13T06:08:59;14.00;;;7.00;;
13252;SDS011;6693;54.370;10.132;2023-05-13T06:10:02;14.80;;;7.63;;
13252;SDS011;6693;54.370;10.132;2023-05-13T06:11:03;12.13;;;6.47;;
13252;SDS011;6693;54.370;10.132;2023-05-13T06:12:07;11.82;;;7.15;;
13252;SDS011;6693;54.370;10.132;2023-05-13T06:13:07;12.50;;;6.95;;
13252;SDS011;6693;54.370;10.132;2023-05-13T06:14:11;14.02;;;6.82;;
13252;SDS011;6693;54.370;10.132;2023-05-13T06:15:11;10.32;;;6.35;;
13252;SDS011;6693;54.370;10.132;2023-05-13T06:16:15;11.27;;;6.53;;
13252;SDS011;6693;54.370;10.132;2023-05-13T06:17:18;11.38;;;7.00;;